الصفحة الرئيسية
METAR-TAF:

METAR-TAF

مطار :

Amami, اليابان

دائرة عرض: 28-26N, خط طول: 129-43E, ارتفاع: 4 متر

مراقبة الطقس الحالي

تاريخ ووقت الإصدار 45 دقيقة قبل الساعة 22:00UTC
ريح 26 عقدة من الجنوب الغربي تتزايد حتى 36 عقدة
درجة الحرارة 26°درجة مئوية
الرطوبة 89%
ضغط 1005 hPa
الرؤية 10 كم أو أكثر
غيوم مفككة على ارتفاع 1000 قدم
غيوم مفككة على ارتفاع 9000 قدم

METAR: RJKA 172200Z AUTO 22026G36KT 9999 BKN010 BKN090 //////TCU 26/24 Q1005

زمن: 07:45 (22:45 UTC)


TAF: مفقودة

أرصاد الطقس والتوقعات من أكثر من 4000 مطار (تقارير الطقس للمطار METAR والتنبؤ بالطقس بالمطارTAF).

المحطات المتاحة هي النقط الصفراء والحمراء على الخريطة.

حرك المؤشر فوق النقطة لمعرفة اسم المحطة.

ثم انقر لمعرفة أرصاد وتوقعات الطقس.

لتغيير الخارطة: اضغط على الأزرار الخضراء مع رمز الصليب الأسود للتكبير. على الزر الأخضر مع شرطة للتصغير، أو على الأسهم الخضراء للخرائط المجاورة.


METAR-TAF: